Monday, August 29, 2016, 9:09 PM EDT
Back to Local

KCXY, Harrisburg Capital City

Location: New Cumberland, PA, United States Lat: 40.217
Local Time: 9:09 PM EDT ( 1:09 GMT) Lon: -76.85
Time Zone: US/Eastern Elev: 347 ft

Show me the last for .
Show Coded

Time T Td Feel RH Dir Speed Gust Alt SLP Vis Weather Sky Remarks
2016-08-29 20:56 82 59 83 45 60° 6 - 30.14 30.13 10 CLR None
2016-08-29 19:56 85 59 85 41 60° 8 - 30.12 30.11 10 CLR 6-hr Min Temp (8pm): 84.9°F
6-hr Max Temp (8pm): 93.0°F
2016-08-29 18:56 89 56 - 32 30° 9 - 30.10 30.09 10 CLR None
2016-08-29 17:56 91 58 - 33 20° 7 - 30.09 30.09 10 CLR None
2016-08-29 16:56 92 57 - 31 30° 6 - 30.09 30.09 10 CLR None
2016-08-29 15:56 92 59 - 33 340° 6 - 30.10 30.10 10 FEW077 None
2016-08-29 14:56 91 61 - 36 310° 7 - 30.13 30.12 10 CLR None
2016-08-29 13:56 90 62 - 39 330° 9 - 30.15 30.14 10 SCT050 6-hr Min Temp (2pm): 73.9°F
6-hr Max Temp (2pm): 90.0°F
2016-08-29 12:56 89 66 93 46 20° 6 - 30.16 30.15 10 SCT050 None
2016-08-29 11:56 86 67 90 53 360° 5 - 30.17 30.17 10 CLR None
2016-08-29 10:56 84 67 87 56 320° 7 - 30.19 30.18 10 CLR None
2016-08-29 09:56 82 65 84 56 340° 6 - 30.19 30.18 10 CLR None
2016-08-29 08:56 80 65 82 60 340° 6 - 30.18 30.18 10 CLR None
2016-08-29 07:56 74 66 77 76 250° 3 - 30.17 30.16 10 CLR 6-hr Min Temp (8am): 69.1°F
6-hr Max Temp (8am): 77.0°F
2016-08-29 06:56 69 64 - 84 230° 5 - 30.17 30.17 10 CLR None
2016-08-29 05:56 70 64 - 81 240° 5 - 30.16 30.15 10 CLR None
2016-08-29 04:56 73 65 77 75 300° 5 - 30.15 30.15 10 CLR None
2016-08-29 03:56 73 65 77 75 190° 3 - 30.14 30.13 10 CLR None
2016-08-29 02:56 73 65 77 75 170° 5 - 30.13 30.13 10 CLR None
2016-08-29 01:56 76 64 79 66 - Calm - 30.15 30.14 10 CLR 6-hr Min Temp (2am): 75.9°F
6-hr Max Temp (2am): 82.9°F
2016-08-29 00:56 78 64 80 62 Variable 3 - 30.16 30.15 10 CLR 24-hr Min Temp (1am): 68.0°F
24-hr Max Temp (1am): 91.0°F
2016-08-28 23:56 77 64 79 64 - Calm - 30.17 30.17 10 CLR None
2016-08-28 22:56 77 64 79 64 250° 5 - 30.19 30.19 10 CLR None
2016-08-28 21:56 80 63 82 56 - Calm - 30.18 30.18 10 CLR None

Support USWX by starting your Amazon purchase here.